Tropical Cyclones
[Index]
Main Index Home Page Stock Weather Photos Extreme Storms Discussion Storm News and Storm Chasing Reports Tropical Cyclones / Hurricanes / Typhoons Weather Data and Links Wild Fires / Bushfires Weather Observation Techniques Weather Picture Catalogue Tornado Pictures and Reports Stock Video Footage and DVDs for sale
Season 2016-2017 Tropical Cyclone 201617_27 Track Map
Season 2016-2017 Summaries: [BoM-AU]
<<- Previous TC | BoM 2016-2017 Season | Next TC ->>

click for intensity scale information  Lat/long Grid: Show Hide

 Date Labels: Show Hide

Bureau of Meteorology Tropical Cyclone Data

Name: 201617_27
Number: 999 / 201617_27

06 Apr 2017 00:00 UTC to 16 Apr 2017 00:00 UTC

    date/time    lat    long    hPa   cat  kts
2017-04-06 00    7.6   135.3                            
2017-04-06 06    8.5   136.9                            
2017-04-07 00    7.7   134.1                            
2017-04-07 06    8.2   134.0                            
2017-04-07 12    7.0   133.6                15          
2017-04-07 18    7.0   133.4                15          
2017-04-08 00    7.4   132.5                15          
2017-04-08 06    7.7   132.6   1005         20          
2017-04-08 12    7.6   132.3   1006         20          
2017-04-08 18    7.4   131.8   1003         20          
2017-04-09 00    7.5   131.9   1004         20          
2017-04-09 06    7.8   132.2   1002         25          
2017-04-09 12    8.1   132.8   1003         25          
2017-04-09 18    8.4   132.8   1003         25          
2017-04-10 00    9.1   132.9   1001         25          
2017-04-10 06    9.8   132.5    998         25          
2017-04-10 12   10.3   132.2    999         30          
2017-04-10 18   10.5   132.3    998         30          
2017-04-11 00   10.9   132.2    998         30          
2017-04-11 06   11.6   132.1    998         30          
2017-04-11 12   11.9   131.8   1002         30          
2017-04-11 18   12.1   131.2   1003         25          
2017-04-12 00   12.4   131.0   1006         20          
2017-04-12 06   12.8   130.4   1004         20          
2017-04-12 12   12.9   129.6   1006         20          
2017-04-12 18   13.3   129.0   1008         20          
2017-04-13 00   13.5   127.6   1008         25          
2017-04-13 06   13.6   125.2                            
2017-04-13 12   14.0   123.8                            
2017-04-13 18   14.2   122.0                            
2017-04-14 00   14.6   121.1                            
2017-04-14 06   15.4   119.5                            
2017-04-14 12   15.7   118.9                            
2017-04-14 18   16.0   118.1                            
2017-04-15 00   16.5   117.6                            
2017-04-15 06   16.5   116.9                            
2017-04-16 00   15.8   115.1                            
Winds are 10-min average.

Tropical cyclone tracks developed by Michael Bath using data from the Bureau of Meteorology and Google Maps.


[Australian Severe Weather index] [Copyright Notice] [Email Contacts] [Search This Site] [Privacy Policy]
Document: tropical_cyclone_201617_27.htm Updated: 29 June 2017